sensor_id;sensor_type;location;lat;lon;timestamp;pressure;altitude;pressure_sealevel;temperature;humidity
38227;BME280;24026;49.446;8.576;2023-06-22T00:02:03;100487.69;;;27.18;49.19
38227;BME280;24026;49.446;8.576;2023-06-22T00:04:24;100492.31;;;27.18;49.19
38227;BME280;24026;49.446;8.576;2023-06-22T00:06:44;100492.31;;;27.18;49.38
38227;BME280;24026;49.446;8.576;2023-06-22T00:09:04;100489.97;;;27.16;49.25
38227;BME280;24026;49.446;8.576;2023-06-22T00:11:27;100487.25;;;27.16;49.53
38227;BME280;24026;49.446;8.576;2023-06-22T00:13:48;100493.84;;;27.15;49.25
38227;BME280;24026;49.446;8.576;2023-06-22T00:16:09;100507.47;;;27.15;49.79
38227;BME280;24026;49.446;8.576;2023-06-22T00:18:29;100514.41;;;27.13;49.81
38227;BME280;24026;49.446;8.576;2023-06-22T00:20:50;100514.41;;;27.13;49.52
38227;BME280;24026;49.446;8.576;2023-06-22T00:23:16;100517.47;;;27.11;49.41
38227;BME280;24026;49.446;8.576;2023-06-22T00:25:38;100521.00;;;27.12;49.48
38227;BME280;24026;49.446;8.576;2023-06-22T00:28:02;100520.59;;;27.10;49.70
38227;BME280;24026;49.446;8.576;2023-06-22T00:30:23;100538.84;;;27.09;49.96
38227;BME280;24026;49.446;8.576;2023-06-22T00:32:45;100547.03;;;27.09;50.02
38227;BME280;24026;49.446;8.576;2023-06-22T00:35:05;100559.09;;;27.08;49.68
38227;BME280;24026;49.446;8.576;2023-06-22T00:37:26;100566.47;;;27.08;50.12
38227;BME280;24026;49.446;8.576;2023-06-22T00:39:49;100589.44;;;27.07;50.25
38227;BME280;24026;49.446;8.576;2023-06-22T00:42:10;100629.53;;;27.06;50.19
38227;BME280;24026;49.446;8.576;2023-06-22T00:44:30;100695.34;;;27.05;49.95
38227;BME280;24026;49.446;8.576;2023-06-22T00:46:54;100764.31;;;27.05;50.07
38227;BME280;24026;49.446;8.576;2023-06-22T00:49:14;100799.34;;;27.03;50.14
38227;BME280;24026;49.446;8.576;2023-06-22T00:51:35;100825.00;;;27.02;50.50
38227;BME280;24026;49.446;8.576;2023-06-22T00:53:58;100830.47;;;27.02;50.57
38227;BME280;24026;49.446;8.576;2023-06-22T00:56:19;100774.31;;;27.01;50.46
38227;BME280;24026;49.446;8.576;2023-06-22T00:58:39;100665.59;;;26.99;50.75
38227;BME280;24026;49.446;8.576;2023-06-22T01:01:01;100600.50;;;26.98;50.34
38227;BME280;24026;49.446;8.576;2023-06-22T01:03:22;100557.25;;;26.96;50.70
38227;BME280;24026;49.446;8.576;2023-06-22T01:05:42;100444.22;;;26.94;50.43
38227;BME280;24026;49.446;8.576;2023-06-22T01:08:37;100342.09;;;26.91;50.40
38227;BME280;24026;49.446;8.576;2023-06-22T01:11:16;100397.69;;;26.87;50.99
38227;BME280;24026;49.446;8.576;2023-06-22T01:13:46;100495.00;;;26.86;50.67
38227;BME280;24026;49.446;8.576;2023-06-22T01:16:16;100560.78;;;26.85;50.78
38227;BME280;24026;49.446;8.576;2023-06-22T01:18:40;100560.00;;;26.84;51.08
38227;BME280;24026;49.446;8.576;2023-06-22T01:21:02;100538.53;;;26.83;51.34
38227;BME280;24026;49.446;8.576;2023-06-22T01:26:28;100545.19;;;26.69;51.88
38227;BME280;24026;49.446;8.576;2023-06-22T01:28:56;100544.84;;;26.71;51.91
38227;BME280;24026;49.446;8.576;2023-06-22T01:31:19;100545.28;;;26.73;52.04
38227;BME280;24026;49.446;8.576;2023-06-22T01:33:42;100549.94;;;26.72;52.27
38227;BME280;24026;49.446;8.576;2023-06-22T01:36:03;100540.19;;;26.71;52.15
38227;BME280;24026;49.446;8.576;2023-06-22T01:38:26;100547.56;;;26.71;51.95
38227;BME280;24026;49.446;8.576;2023-06-22T01:40:50;100550.63;;;26.69;52.35
38227;BME280;24026;49.446;8.576;2023-06-22T01:43:11;100551.00;;;26.68;52.53
38227;BME280;24026;49.446;8.576;2023-06-22T01:45:31;100562.69;;;26.68;52.40
38227;BME280;24026;49.446;8.576;2023-06-22T01:47:52;100550.53;;;26.66;52.97
38227;BME280;24026;49.446;8.576;2023-06-22T01:50:13;100546.22;;;26.65;53.07
38227;BME280;24026;49.446;8.576;2023-06-22T01:52:33;100547.38;;;26.64;53.18
38227;BME280;24026;49.446;8.576;2023-06-22T01:54:54;100550.41;;;26.62;52.98
38227;BME280;24026;49.446;8.576;2023-06-22T01:57:14;100559.38;;;26.62;53.13
38227;BME280;24026;49.446;8.576;2023-06-22T01:59:39;100554.28;;;26.61;53.19
38227;BME280;24026;49.446;8.576;2023-06-22T02:02:09;100547.25;;;26.60;53.50
38227;BME280;24026;49.446;8.576;2023-06-22T02:04:36;100546.44;;;26.59;53.64
38227;BME280;24026;49.446;8.576;2023-06-22T02:07:00;100546.00;;;26.57;53.41
38227;BME280;24026;49.446;8.576;2023-06-22T02:09:28;100561.56;;;26.57;53.39
38227;BME280;24026;49.446;8.576;2023-06-22T02:11:50;100562.69;;;26.56;53.63
38227;BME280;24026;49.446;8.576;2023-06-22T02:14:15;100563.03;;;26.54;53.60
38227;BME280;24026;49.446;8.576;2023-06-22T02:16:36;100568.50;;;26.54;53.75
38227;BME280;24026;49.446;8.576;2023-06-22T02:19:01;100550.56;;;26.53;53.80
38227;BME280;24026;49.446;8.576;2023-06-22T02:21:23;100550.91;;;26.52;54.33
38227;BME280;24026;49.446;8.576;2023-06-22T02:23:43;100536.84;;;26.50;54.06
38227;BME280;24026;49.446;8.576;2023-06-22T02:26:04;100538.75;;;26.49;54.56
38227;BME280;24026;49.446;8.576;2023-06-22T02:28:26;100535.25;;;26.49;54.22
38227;BME280;24026;49.446;8.576;2023-06-22T02:30:47;100530.94;;;26.48;54.54
38227;BME280;24026;49.446;8.576;2023-06-22T02:33:07;100530.16;;;26.47;54.70
38227;BME280;24026;49.446;8.576;2023-06-22T02:35:28;100526.63;;;26.47;54.53
38227;BME280;24026;49.446;8.576;2023-06-22T02:37:51;100529.72;;;26.45;54.40
38227;BME280;24026;49.446;8.576;2023-06-22T02:40:12;100539.78;;;26.44;55.01
38227;BME280;24026;49.446;8.576;2023-06-22T02:42:33;100531.63;;;26.44;54.82
38227;BME280;24026;49.446;8.576;2023-06-22T02:44:53;100529.28;;;26.43;54.85
38227;BME280;24026;49.446;8.576;2023-06-22T02:47:13;100520.28;;;26.42;55.23
38227;BME280;24026;49.446;8.576;2023-06-22T02:49:35;100511.31;;;26.42;55.20
38227;BME280;24026;49.446;8.576;2023-06-22T02:51:55;100507.34;;;26.39;55.05
38227;BME280;24026;49.446;8.576;2023-06-22T02:54:15;100513.59;;;26.40;55.01
38227;BME280;24026;49.446;8.576;2023-06-22T02:56:36;100510.88;;;26.40;55.14
38227;BME280;24026;49.446;8.576;2023-06-22T02:58:57;100513.94;;;26.38;55.10
38227;BME280;24026;49.446;8.576;2023-06-22T03:01:21;100513.50;;;26.36;55.48
38227;BME280;24026;49.446;8.576;2023-06-22T03:03:44;100506.13;;;26.37;55.59
38227;BME280;24026;49.446;8.576;2023-06-22T03:06:04;100502.63;;;26.36;55.67
38227;BME280;24026;49.446;8.576;2023-06-22T03:08:25;100496.34;;;26.36;55.61
38227;BME280;24026;49.446;8.576;2023-06-22T03:10:45;100502.97;;;26.35;55.73
38227;BME280;24026;49.446;8.576;2023-06-22T03:13:05;100504.09;;;26.34;56.07
38227;BME280;24026;49.446;8.576;2023-06-22T03:15:26;100501.38;;;26.34;55.69
38227;BME280;24026;49.446;8.576;2023-06-22T03:17:49;100502.50;;;26.33;55.67
38227;BME280;24026;49.446;8.576;2023-06-22T03:20:10;100496.25;;;26.32;55.89
38227;BME280;24026;49.446;8.576;2023-06-22T03:22:31;100489.25;;;26.31;55.82
38227;BME280;24026;49.446;8.576;2023-06-22T03:24:52;100481.84;;;26.32;56.09
38227;BME280;24026;49.446;8.576;2023-06-22T03:27:12;100488.78;;;26.29;55.73
38227;BME280;24026;49.446;8.576;2023-06-22T03:29:33;100479.81;;;26.29;55.73
38227;BME280;24026;49.446;8.576;2023-06-22T03:31:54;100486.38;;;26.28;56.10
38227;BME280;24026;49.446;8.576;2023-06-22T03:34:14;100491.84;;;26.28;56.31
38227;BME280;24026;49.446;8.576;2023-06-22T03:36:35;100494.91;;;26.26;56.25
38227;BME280;24026;49.446;8.576;2023-06-22T03:38:55;100496.06;;;26.25;56.13
38227;BME280;24026;49.446;8.576;2023-06-22T03:41:15;100491.75;;;26.24;56.37
38227;BME280;24026;49.446;8.576;2023-06-22T03:43:36;100484.72;;;26.23;56.25
38227;BME280;24026;49.446;8.576;2023-06-22T03:45:56;100482.00;;;26.23;56.39
38227;BME280;24026;49.446;8.576;2023-06-22T03:48:17;100484.25;;;26.21;56.52
38227;BME280;24026;49.446;8.576;2023-06-22T03:50:37;100495.16;;;26.21;56.58
38227;BME280;24026;49.446;8.576;2023-06-22T03:52:57;100494.38;;;26.20;56.61
38227;BME280;24026;49.446;8.576;2023-06-22T03:55:19;100493.25;;;26.21;56.32
38227;BME280;24026;49.446;8.576;2023-06-22T03:57:40;100487.31;;;26.19;56.33
38227;BME280;24026;49.446;8.576;2023-06-22T04:00:00;100496.66;;;26.18;56.53
38227;BME280;24026;49.446;8.576;2023-06-22T04:02:21;100485.75;;;26.18;56.49
38227;BME280;24026;49.446;8.576;2023-06-22T04:04:41;100486.88;;;26.17;56.63
38227;BME280;24026;49.446;8.576;2023-06-22T04:07:02;100488.81;;;26.17;56.71
38227;BME280;24026;49.446;8.576;2023-06-22T04:09:22;100488.03;;;26.16;56.66
38227;BME280;24026;49.446;8.576;2023-06-22T04:11:42;100490.75;;;26.16;56.93
38227;BME280;24026;49.446;8.576;2023-06-22T04:14:03;100487.22;;;26.16;56.64
38227;BME280;24026;49.446;8.576;2023-06-22T04:16:23;100484.84;;;26.14;56.94
38227;BME280;24026;49.446;8.576;2023-06-22T04:18:43;100480.22;;;26.15;56.80
38227;BME280;24026;49.446;8.576;2023-06-22T04:21:04;100482.13;;;26.14;56.63
38227;BME280;24026;49.446;8.576;2023-06-22T04:23:24;100478.63;;;26.14;56.81
38227;BME280;24026;49.446;8.576;2023-06-22T04:25:45;100464.22;;;26.13;57.12
38227;BME280;24026;49.446;8.576;2023-06-22T04:28:05;100468.84;;;26.13;56.92
38227;BME280;24026;49.446;8.576;2023-06-22T04:30:26;100464.56;;;26.12;56.51
38227;BME280;24026;49.446;8.576;2023-06-22T04:32:47;100463.78;;;26.11;56.81
38227;BME280;24026;49.446;8.576;2023-06-22T04:35:17;100467.63;;;26.10;56.84
38227;BME280;24026;49.446;8.576;2023-06-22T04:37:38;100468.41;;;26.11;56.53
38227;BME280;24026;49.446;8.576;2023-06-22T04:39:59;100463.78;;;26.11;56.80
38227;BME280;24026;49.446;8.576;2023-06-22T04:42:19;100473.84;;;26.11;56.89
38227;BME280;24026;49.446;8.576;2023-06-22T04:44:41;100470.34;;;26.10;56.77
38227;BME280;24026;49.446;8.576;2023-06-22T04:47:02;100475.00;;;26.10;57.03
38227;BME280;24026;49.446;8.576;2023-06-22T04:49:23;100475.78;;;26.10;56.74
38227;BME280;24026;49.446;8.576;2023-06-22T04:51:52;100470.34;;;26.10;56.75
38227;BME280;24026;49.446;8.576;2023-06-22T04:54:17;100470.78;;;26.12;56.94
38227;BME280;24026;49.446;8.576;2023-06-22T04:56:39;100462.97;;;26.11;57.12
38227;BME280;24026;49.446;8.576;2023-06-22T04:59:01;100455.59;;;26.11;57.02
38227;BME280;24026;49.446;8.576;2023-06-22T05:01:21;100454.44;;;26.12;57.01
38227;BME280;24026;49.446;8.576;2023-06-22T05:03:44;100445.50;;;26.12;57.32
38227;BME280;24026;49.446;8.576;2023-06-22T05:06:05;100445.06;;;26.10;57.61
38227;BME280;24026;49.446;8.576;2023-06-22T05:08:25;100450.84;;;26.08;57.49
38227;BME280;24026;49.446;8.576;2023-06-22T05:10:46;100453.91;;;26.06;57.61
38227;BME280;24026;49.446;8.576;2023-06-22T05:13:07;100458.53;;;26.06;58.05
38227;BME280;24026;49.446;8.576;2023-06-22T05:15:27;100449.94;;;26.04;58.18
38227;BME280;24026;49.446;8.576;2023-06-22T05:17:50;100443.69;;;26.03;58.04
38227;BME280;24026;49.446;8.576;2023-06-22T05:20:12;100442.91;;;26.03;58.08
38227;BME280;24026;49.446;8.576;2023-06-22T05:22:32;100437.81;;;26.01;58.08
38227;BME280;24026;49.446;8.576;2023-06-22T05:24:53;100435.88;;;26.02;58.47
38227;BME280;24026;49.446;8.576;2023-06-22T05:27:14;100445.41;;;25.96;58.52
38227;BME280;24026;49.446;8.576;2023-06-22T05:29:34;100435.66;;;25.82;58.73
38227;BME280;24026;49.446;8.576;2023-06-22T05:31:56;100434.19;;;25.73;59.08
38227;BME280;24026;49.446;8.576;2023-06-22T05:34:16;100433.31;;;25.68;59.35
38227;BME280;24026;49.446;8.576;2023-06-22T05:36:37;100428.09;;;25.63;59.55
38227;BME280;24026;49.446;8.576;2023-06-22T05:38:58;100417.56;;;25.62;59.28
38227;BME280;24026;49.446;8.576;2023-06-22T05:41:19;100414.06;;;25.61;59.33
38227;BME280;24026;49.446;8.576;2023-06-22T05:43:40;100423.59;;;25.55;59.51
38227;BME280;24026;49.446;8.576;2023-06-22T05:46:01;100423.81;;;25.50;59.36
38227;BME280;24026;49.446;8.576;2023-06-22T05:48:22;100428.34;;;25.46;59.44
38227;BME280;24026;49.446;8.576;2023-06-22T05:50:44;100429.16;;;25.46;59.38
38227;BME280;24026;49.446;8.576;2023-06-22T05:53:04;100433.34;;;25.44;59.41
38227;BME280;24026;49.446;8.576;2023-06-22T05:55:26;100426.66;;;25.41;59.26
38227;BME280;24026;49.446;8.576;2023-06-22T05:57:47;100430.41;;;25.37;59.41
38227;BME280;24026;49.446;8.576;2023-06-22T06:00:09;100421.91;;;25.38;59.61
38227;BME280;24026;49.446;8.576;2023-06-22T06:02:31;100428.22;;;25.42;59.44
38227;BME280;24026;49.446;8.576;2023-06-22T06:04:54;100428.72;;;25.44;59.33
38227;BME280;24026;49.446;8.576;2023-06-22T06:07:16;100422.91;;;25.46;59.47
38227;BME280;24026;49.446;8.576;2023-06-22T06:09:39;100418.28;;;25.46;59.19
38227;BME280;24026;49.446;8.576;2023-06-22T06:11:59;100409.09;;;25.51;59.25
38227;BME280;24026;49.446;8.576;2023-06-22T06:14:20;100416.19;;;25.56;59.19
38227;BME280;24026;49.446;8.576;2023-06-22T06:16:41;100431.75;;;25.55;59.07
38227;BME280;24026;49.446;8.576;2023-06-22T06:19:01;100436.41;;;25.55;59.02
38227;BME280;24026;49.446;8.576;2023-06-22T06:21:22;100436.41;;;25.55;58.17
38227;BME280;24026;49.446;8.576;2023-06-22T06:23:42;100423.25;;;25.57;58.52
38227;BME280;24026;49.446;8.576;2023-06-22T06:26:03;100397.25;;;25.59;58.16
38227;BME280;24026;49.446;8.576;2023-06-22T06:28:27;100398.63;;;25.65;58.26
38227;BME280;24026;49.446;8.576;2023-06-22T06:30:47;100409.25;;;25.70;57.87
38227;BME280;24026;49.446;8.576;2023-06-22T06:33:08;100402.00;;;25.75;57.41
38227;BME280;24026;49.446;8.576;2023-06-22T06:35:29;100402.91;;;25.79;57.21
38227;BME280;24026;49.446;8.576;2023-06-22T06:37:50;100412.75;;;25.83;56.98
38227;BME280;24026;49.446;8.576;2023-06-22T06:40:12;100416.38;;;25.87;56.49
38227;BME280;24026;49.446;8.576;2023-06-22T06:42:32;100407.50;;;25.91;56.20
38227;BME280;24026;49.446;8.576;2023-06-22T06:44:53;100407.31;;;25.96;56.31
38227;BME280;24026;49.446;8.576;2023-06-22T06:47:13;100413.66;;;26.00;56.08
38227;BME280;24026;49.446;8.576;2023-06-22T06:49:34;100413.75;;;26.03;55.80
38227;BME280;24026;49.446;8.576;2023-06-22T06:51:54;100409.53;;;26.06;55.73
38227;BME280;24026;49.446;8.576;2023-06-22T06:54:16;100414.75;;;26.11;55.54
38227;BME280;24026;49.446;8.576;2023-06-22T06:56:36;100405.09;;;26.14;55.04
38227;BME280;24026;49.446;8.576;2023-06-22T06:58:57;100400.56;;;26.18;55.20
38227;BME280;24026;49.446;8.576;2023-06-22T07:01:18;100401.00;;;26.20;55.15
38227;BME280;24026;49.446;8.576;2023-06-22T07:03:41;100402.22;;;26.22;54.62
38227;BME280;24026;49.446;8.576;2023-06-22T07:06:04;100399.16;;;26.24;54.78
38227;BME280;24026;49.446;8.576;2023-06-22T07:08:25;100403.13;;;26.27;54.63
38227;BME280;24026;49.446;8.576;2023-06-22T07:10:45;100390.38;;;26.31;54.17
38227;BME280;24026;49.446;8.576;2023-06-22T07:13:07;100392.75;;;26.32;54.40
38227;BME280;24026;49.446;8.576;2023-06-22T07:15:31;100393.19;;;26.34;54.21
38227;BME280;24026;49.446;8.576;2023-06-22T07:17:53;100380.03;;;26.36;53.88
38227;BME280;24026;49.446;8.576;2023-06-22T07:20:14;100374.22;;;26.38;53.60
38227;BME280;24026;49.446;8.576;2023-06-22T07:22:35;100370.78;;;26.41;53.48
38227;BME280;24026;49.446;8.576;2023-06-22T07:24:55;100373.16;;;26.42;53.12
38227;BME280;24026;49.446;8.576;2023-06-22T07:27:16;100364.66;;;26.44;53.01
38227;BME280;24026;49.446;8.576;2023-06-22T07:29:39;100363.19;;;26.47;52.94
38227;BME280;24026;49.446;8.576;2023-06-22T07:32:00;100374.50;;;26.49;52.92
38227;BME280;24026;49.446;8.576;2023-06-22T07:34:24;100378.81;;;26.50;52.67
38227;BME280;24026;49.446;8.576;2023-06-22T07:36:46;100367.56;;;26.51;52.88
38227;BME280;24026;49.446;8.576;2023-06-22T07:39:06;100376.19;;;26.53;52.56
38227;BME280;24026;49.446;8.576;2023-06-22T07:41:27;100376.63;;;26.55;52.62
38227;BME280;24026;49.446;8.576;2023-06-22T07:43:47;100382.16;;;26.59;52.21
38227;BME280;24026;49.446;8.576;2023-06-22T07:46:08;100385.31;;;26.61;51.88
38227;BME280;24026;49.446;8.576;2023-06-22T07:48:29;100383.88;;;26.64;51.61
38227;BME280;24026;49.446;8.576;2023-06-22T07:50:49;100366.81;;;26.67;51.47
38227;BME280;24026;49.446;8.576;2023-06-22T07:53:10;100377.81;;;26.70;51.35
38227;BME280;24026;49.446;8.576;2023-06-22T07:55:30;100397.31;;;26.72;51.28
38227;BME280;24026;49.446;8.576;2023-06-22T07:57:51;100402.06;;;26.75;51.04
38227;BME280;24026;49.446;8.576;2023-06-22T08:00:12;100372.09;;;26.75;51.18
38227;BME280;24026;49.446;8.576;2023-06-22T08:02:36;100360.06;;;26.76;51.03
38227;BME280;24026;49.446;8.576;2023-06-22T08:04:56;100375.69;;;26.79;50.75
38227;BME280;24026;49.446;8.576;2023-06-22T08:07:17;100388.63;;;26.83;50.73
38227;BME280;24026;49.446;8.576;2023-06-22T08:09:47;100357.50;;;26.84;50.36
38227;BME280;24026;49.446;8.576;2023-06-22T08:12:09;100350.09;;;26.84;50.77
38227;BME280;24026;49.446;8.576;2023-06-22T08:14:31;100347.47;;;26.88;50.61
38227;BME280;24026;49.446;8.576;2023-06-22T08:16:51;100367.44;;;26.92;50.52
38227;BME280;24026;49.446;8.576;2023-06-22T08:19:12;100377.63;;;26.95;50.46
38227;BME280;24026;49.446;8.576;2023-06-22T08:21:32;100370.31;;;26.99;50.37
38227;BME280;24026;49.446;8.576;2023-06-22T08:23:53;100363.38;;;27.02;49.93
38227;BME280;24026;49.446;8.576;2023-06-22T08:26:14;100351.75;;;27.05;49.77
38227;BME280;24026;49.446;8.576;2023-06-22T08:28:35;100354.94;;;27.07;49.66
38227;BME280;24026;49.446;8.576;2023-06-22T08:30:55;100351.50;;;27.10;49.59
38227;BME280;24026;49.446;8.576;2023-06-22T08:33:15;100357.38;;;27.12;49.45
38227;BME280;24026;49.446;8.576;2023-06-22T08:35:36;100356.69;;;27.15;49.74
38227;BME280;24026;49.446;8.576;2023-06-22T08:37:57;100357.53;;;27.19;49.47
38227;BME280;24026;49.446;8.576;2023-06-22T08:40:19;100340.13;;;27.24;49.32
38227;BME280;24026;49.446;8.576;2023-06-22T08:42:40;100337.81;;;27.26;48.77
38227;BME280;24026;49.446;8.576;2023-06-22T08:45:00;100352.69;;;27.28;48.95
38227;BME280;24026;49.446;8.576;2023-06-22T08:47:21;100347.69;;;27.30;48.96
38227;BME280;24026;49.446;8.576;2023-06-22T08:49:42;100347.00;;;27.33;48.81
38227;BME280;24026;49.446;8.576;2023-06-22T08:52:03;100344.34;;;27.37;48.62
38227;BME280;24026;49.446;8.576;2023-06-22T08:54:23;100337.81;;;27.42;48.47
38227;BME280;24026;49.446;8.576;2023-06-22T08:56:44;100340.63;;;27.45;48.13
38227;BME280;24026;49.446;8.576;2023-06-22T08:59:05;100340.69;;;27.49;47.87
38227;BME280;24026;49.446;8.576;2023-06-22T09:01:28;100338.03;;;27.52;47.82
38227;BME280;24026;49.446;8.576;2023-06-22T09:03:49;100349.81;;;27.57;48.04
38227;BME280;24026;49.446;8.576;2023-06-22T09:06:15;100348.66;;;27.58;48.04
38227;BME280;24026;49.446;8.576;2023-06-22T09:08:36;100355.44;;;27.64;47.91
38227;BME280;24026;49.446;8.576;2023-06-22T09:10:57;100365.63;;;27.67;47.92
38227;BME280;24026;49.446;8.576;2023-06-22T09:13:17;100365.72;;;27.70;47.34
38227;BME280;24026;49.446;8.576;2023-06-22T09:15:38;100364.63;;;27.75;47.36
38227;BME280;24026;49.446;8.576;2023-06-22T09:17:58;100361.16;;;27.78;47.21
38227;BME280;24026;49.446;8.576;2023-06-22T09:20:19;100340.91;;;27.79;47.03
38227;BME280;24026;49.446;8.576;2023-06-22T09:22:40;100337.81;;;27.81;47.15
38227;BME280;24026;49.446;8.576;2023-06-22T09:25:01;100335.53;;;27.83;47.27
38227;BME280;24026;49.446;8.576;2023-06-22T09:27:23;100317.66;;;27.85;46.87
38227;BME280;24026;49.446;8.576;2023-06-22T09:29:43;100320.09;;;27.90;46.84
38227;BME280;24026;49.446;8.576;2023-06-22T09:32:04;100322.13;;;27.94;46.58
38227;BME280;24026;49.446;8.576;2023-06-22T09:34:24;100317.88;;;27.96;46.78
38227;BME280;24026;49.446;8.576;2023-06-22T09:36:45;100310.09;;;27.98;46.65
38227;BME280;24026;49.446;8.576;2023-06-22T09:39:05;100301.19;;;28.01;46.64
38227;BME280;24026;49.446;8.576;2023-06-22T09:41:26;100300.03;;;28.02;46.88
38227;BME280;24026;49.446;8.576;2023-06-22T09:43:47;100284.06;;;28.04;47.19
38227;BME280;24026;49.446;8.576;2023-06-22T09:46:08;100276.31;;;28.06;46.84
38227;BME280;24026;49.446;8.576;2023-06-22T09:48:29;100275.22;;;28.11;47.08
38227;BME280;24026;49.446;8.576;2023-06-22T09:50:50;100278.81;;;28.15;47.21
38227;BME280;24026;49.446;8.576;2023-06-22T09:53:11;100269.47;;;28.16;47.20
38227;BME280;24026;49.446;8.576;2023-06-22T09:55:31;100255.84;;;28.20;46.96
38227;BME280;24026;49.446;8.576;2023-06-22T09:57:52;100248.53;;;28.24;47.15
38227;BME280;24026;49.446;8.576;2023-06-22T10:00:13;100252.47;;;28.26;47.18
38227;BME280;24026;49.446;8.576;2023-06-22T10:02:35;100249.00;;;28.30;47.16
38227;BME280;24026;49.446;8.576;2023-06-22T10:04:55;100265.03;;;28.31;47.18
38227;BME280;24026;49.446;8.576;2023-06-22T10:07:17;100261.56;;;28.34;47.03
38227;BME280;24026;49.446;8.576;2023-06-22T10:09:38;100256.53;;;28.36;47.47
38227;BME280;24026;49.446;8.576;2023-06-22T10:11:59;100260.47;;;28.39;47.28
38227;BME280;24026;49.446;8.576;2023-06-22T10:14:20;100255.84;;;28.43;47.60
38227;BME280;24026;49.446;8.576;2023-06-22T10:16:41;100243.06;;;28.47;46.93
38227;BME280;24026;49.446;8.576;2023-06-22T10:19:02;100236.84;;;28.50;47.11
38227;BME280;24026;49.446;8.576;2023-06-22T10:21:22;100242.72;;;28.52;46.82
38227;BME280;24026;49.446;8.576;2023-06-22T10:23:42;100236.91;;;28.54;46.92
38227;BME280;24026;49.446;8.576;2023-06-22T10:26:03;100234.16;;;28.54;47.31
38227;BME280;24026;49.446;8.576;2023-06-22T10:28:23;100229.50;;;28.54;47.36
38227;BME280;24026;49.446;8.576;2023-06-22T10:30:44;100229.94;;;28.56;46.88
38227;BME280;24026;49.446;8.576;2023-06-22T10:33:04;100218.63;;;28.58;47.02
38227;BME280;24026;49.446;8.576;2023-06-22T10:35:24;100219.03;;;28.60;47.16
38227;BME280;24026;49.446;8.576;2023-06-22T10:37:46;100211.66;;;28.60;46.87
38227;BME280;24026;49.446;8.576;2023-06-22T10:40:07;100207.75;;;28.61;47.00
38227;BME280;24026;49.446;8.576;2023-06-22T10:42:30;100198.03;;;28.64;47.10
38227;BME280;24026;49.446;8.576;2023-06-22T10:44:52;100206.59;;;28.62;47.14
38227;BME280;24026;49.446;8.576;2023-06-22T10:47:12;100201.13;;;28.62;47.46
38227;BME280;24026;49.446;8.576;2023-06-22T10:49:34;100200.78;;;28.64;47.67
38227;BME280;24026;49.446;8.576;2023-06-22T10:51:56;100196.09;;;28.64;47.59
38227;BME280;24026;49.446;8.576;2023-06-22T10:54:17;100190.25;;;28.66;47.86
38227;BME280;24026;49.446;8.576;2023-06-22T10:56:40;100188.75;;;28.69;47.83
38227;BME280;24026;49.446;8.576;2023-06-22T10:59:01;100189.16;;;28.71;47.63
38227;BME280;24026;49.446;8.576;2023-06-22T11:01:22;100192.28;;;28.73;47.46
38227;BME280;24026;49.446;8.576;2023-06-22T11:03:43;100200.13;;;28.74;47.85
38227;BME280;24026;49.446;8.576;2023-06-22T11:06:04;100193.94;;;28.77;47.46
38227;BME280;24026;49.446;8.576;2023-06-22T11:08:24;100184.19;;;28.80;47.93
38227;BME280;24026;49.446;8.576;2023-06-22T11:10:44;100187.00;;;28.83;47.82
38227;BME280;24026;49.446;8.576;2023-06-22T11:13:06;100190.91;;;28.86;47.54
38227;BME280;24026;49.446;8.576;2023-06-22T11:15:29;100180.00;;;28.90;47.67
38227;BME280;24026;49.446;8.576;2023-06-22T11:17:50;100173.81;;;28.93;47.47
38227;BME280;24026;49.446;8.576;2023-06-22T11:20:11;100171.47;;;28.95;47.20
38227;BME280;24026;49.446;8.576;2023-06-22T11:22:32;100171.53;;;28.98;47.03
38227;BME280;24026;49.446;8.576;2023-06-22T11:24:53;100166.50;;;29.00;47.00
38227;BME280;24026;49.446;8.576;2023-06-22T11:27:15;100173.97;;;29.04;47.08
38227;BME280;24026;49.446;8.576;2023-06-22T11:29:35;100176.28;;;29.05;47.08
38227;BME280;24026;49.446;8.576;2023-06-22T11:31:56;100172.41;;;29.06;47.25
38227;BME280;24026;49.446;8.576;2023-06-22T11:34:16;100165.78;;;29.07;47.21
38227;BME280;24026;49.446;8.576;2023-06-22T11:36:39;100165.78;;;29.07;46.88
38227;BME280;24026;49.446;8.576;2023-06-22T11:39:00;100171.63;;;29.06;46.88
38227;BME280;24026;49.446;8.576;2023-06-22T11:41:20;100174.00;;;29.07;46.78
38227;BME280;24026;49.446;8.576;2023-06-22T11:43:42;100164.63;;;29.08;46.89
38227;BME280;24026;49.446;8.576;2023-06-22T11:46:03;100169.34;;;29.11;46.55
38227;BME280;24026;49.446;8.576;2023-06-22T11:48:24;100168.97;;;29.13;46.25
38227;BME280;24026;49.446;8.576;2023-06-22T11:50:45;100170.13;;;29.12;46.74
38227;BME280;24026;49.446;8.576;2023-06-22T11:53:05;100169.34;;;29.11;46.54
38227;BME280;24026;49.446;8.576;2023-06-22T11:55:26;100163.50;;;29.13;46.21
38227;BME280;24026;49.446;8.576;2023-06-22T11:57:54;100167.81;;;29.14;46.26
38227;BME280;24026;49.446;8.576;2023-06-22T12:00:15;100154.41;;;29.05;46.93
38227;BME280;24026;49.446;8.576;2023-06-22T12:02:37;100151.25;;;29.03;46.72
38227;BME280;24026;49.446;8.576;2023-06-22T12:04:58;100150.53;;;29.06;46.32
38227;BME280;24026;49.446;8.576;2023-06-22T12:07:18;100159.13;;;29.08;46.50
38227;BME280;24026;49.446;8.576;2023-06-22T12:09:38;100157.63;;;29.11;46.62
38227;BME280;24026;49.446;8.576;2023-06-22T12:11:59;100155.25;;;29.09;46.31
38227;BME280;24026;49.446;8.576;2023-06-22T12:14:19;100160.72;;;29.09;46.48
38227;BME280;24026;49.446;8.576;2023-06-22T12:16:40;100161.50;;;29.10;45.75
38227;BME280;24026;49.446;8.576;2023-06-22T12:19:00;100163.50;;;29.13;45.79
38227;BME280;24026;49.446;8.576;2023-06-22T12:21:20;100157.28;;;29.16;45.68
38227;BME280;24026;49.446;8.576;2023-06-22T12:23:42;100154.22;;;29.17;45.42